Alvord, Texas
Current Conditions -  °F | °C
As of 5:55 PM on Monday 20 Oct 2014 (Local Time) from KLUD Reporting Station
Scattered Clouds Scattered Clouds  
Wind Chill: 77°   Ceiling: Unl
Heat Index: 79°   Visibility: 10mi
Dew Point: 58°   Wind: 5mph
Humidity: 52%   Direction: 120°ESE
Pressure: 30.02"   Gusts: NA
Location:  33.36°N, 97.69°W
Report Text: KLUD 202255Z AUTO 12004KT 10SM SCT075 25/14 A3002 RMK AO2 T02490143
Loading
Personal Weather Stations






























Interactive Weather Map
Tropical Storm Tracking
New forecast layout! Learn more

10-Day Weather Forecast

Advertisements
Track Severe Weather on mobile